Rising Sun, Illinois
Current Conditions -  °F | °C
As of 1:15 AM on Friday 19 Dec 2014 (Local Time) from KCUL Reporting Station
Broken Clouds Broken Clouds  
Wind Chill: 31°   Ceiling: 5000
Heat Index: 31°   Visibility: 7mi
Dew Point: 29°   Wind: 3mph
Humidity: 92%   Direction: 360°N
Pressure: 30.28"   Gusts: NA
Location:  38.0491°N, 88.1124°W
Report Text: KCUL 190715Z AUTO 36003KT 7SM BKN050 M01/M02 A3028 RMK AO2 T10081019
Loading
Personal Weather Stations






























Interactive Weather Map New forecast layout! Learn more

10-Day Weather Forecast

Advertisements
Track Severe Weather on mobile